Time;durP1;ratioP1;P1;durP2;ratioP2;P2;SDS_P1;SDS_P2;PMS_P1;PMS_P2;Temp;Humidity;BMP_temperature;BMP_pressure;BME280_temperature;BME280_humidity;BME280_pressure;Samples;Min_cycle;Max_cycle;Signal;HPM_P1;HPM_P2
2022/07/22 00:01:22;;;;;;;5.60;4.00;;;27.40;78.60;;;;;;5117030;28;20211;-92
2022/07/22 00:03:48;;;;;;;7.90;4.33;;;27.30;78.60;;;;;;5117181;28;20172;-92
2022/07/22 00:06:14;;;;;;;5.03;4.00;;;27.30;78.60;;;;;;5117063;28;20176;-93
2022/07/22 00:08:39;;;;;;;5.30;4.27;;;27.20;78.70;;;;;;5117468;28;20227;-91
2022/07/22 00:11:05;;;;;;;4.70;4.00;;;27.20;79.00;;;;;;5116608;28;20266;-93
2022/07/22 00:13:31;;;;;;;6.13;3.63;;;27.20;79.20;;;;;;5120679;28;20283;-92
2022/07/22 00:15:58;;;;;;;10.03;3.90;;;27.10;79.20;;;;;;5117980;28;20433;-93
2022/07/22 00:18:24;;;;;;;5.93;3.70;;;27.10;79.70;;;;;;5121738;28;20266;-92
2022/07/22 00:20:50;;;;;;;5.43;3.70;;;27.10;80.10;;;;;;5120605;28;20471;-92
2022/07/22 00:23:16;;;;;;;4.87;3.77;;;27.10;80.60;;;;;;5119785;28;20271;-93
2022/07/22 00:25:42;;;;;;;6.60;4.17;;;27.10;80.70;;;;;;5119418;28;20176;-92
2022/07/22 00:28:08;;;;;;;5.10;4.00;;;27.00;80.70;;;;;;5116625;28;20424;-93
2022/07/22 00:30:33;;;;;;;6.47;4.20;;;27.00;80.80;;;;;;5116639;28;20484;-92
2022/07/22 00:32:59;;;;;;;5.80;4.03;;;26.90;81.10;;;;;;5117590;28;20195;-93
2022/07/22 00:35:25;;;;;;;10.47;3.90;;;26.90;81.10;;;;;;5116665;28;20180;-93
2022/07/22 00:37:51;;;;;;;7.10;3.90;;;26.80;81.00;;;;;;5121847;28;20660;-93
2022/07/22 00:40:17;;;;;;;7.23;3.97;;;26.80;81.00;;;;;;5115540;28;20524;-92
2022/07/22 00:42:42;;;;;;;7.00;4.50;;;26.80;81.80;;;;;;5115241;28;20665;-93
2022/07/22 00:45:09;;;;;;;8.93;4.23;;;26.70;81.30;;;;;;5115610;28;20184;-92
2022/07/22 00:47:35;;;;;;;5.40;3.90;;;26.60;81.60;;;;;;5117139;28;20202;-93
2022/07/22 00:50:01;;;;;;;7.30;3.87;;;26.60;81.70;;;;;;5115382;28;21004;-93
2022/07/22 00:52:27;;;;;;;11.60;4.43;;;26.60;81.50;;;;;;5116106;28;20424;-93
2022/07/22 00:54:54;;;;;;;7.47;4.13;;;26.60;81.60;;;;;;5116396;28;20235;-93
2022/07/22 00:57:21;;;;;;;7.27;4.90;;;26.50;81.50;;;;;;5114883;28;20218;-93
2022/07/22 00:59:46;;;;;;;5.00;4.50;;;26.50;81.10;;;;;;5115235;28;20498;-92
2022/07/22 01:02:12;;;;;;;5.23;3.40;;;26.50;81.10;;;;;;5116083;28;20449;-93
2022/07/22 01:04:39;;;;;;;5.80;3.80;;;26.40;81.90;;;;;;5114958;28;20175;-93
2022/07/22 01:07:04;;;;;;;6.97;4.43;;;26.40;81.80;;;;;;5114557;28;20199;-93
2022/07/22 01:09:30;;;;;;;5.83;4.07;;;26.30;82.00;;;;;;5114986;28;20527;-93
2022/07/22 01:11:56;;;;;;;10.83;3.77;;;26.30;82.20;;;;;;5114631;28;20747;-93
2022/07/22 01:14:21;;;;;;;6.90;4.30;;;26.20;82.80;;;;;;5115915;28;20259;-92
2022/07/22 01:16:47;;;;;;;7.70;4.03;;;26.20;83.00;;;;;;5115058;28;20191;-93
2022/07/22 01:19:13;;;;;;;7.23;4.10;;;26.20;83.00;;;;;;5116101;28;20222;-93
2022/07/22 01:21:39;;;;;;;4.70;3.73;;;26.10;83.30;;;;;;5114375;28;20628;-92
2022/07/22 01:24:05;;;;;;;8.40;3.93;;;26.10;83.40;;;;;;5114585;28;20176;-92
2022/07/22 01:26:33;;;;;;;10.60;3.70;;;26.00;83.40;;;;;;5114351;28;20195;-93
2022/07/22 01:28:59;;;;;;;6.03;3.67;;;26.00;83.40;;;;;;5116574;28;20420;-93
2022/07/22 01:31:25;;;;;;;5.17;3.87;;;26.00;83.30;;;;;;5114506;28;20446;-93
2022/07/22 01:33:50;;;;;;;6.17;3.90;;;25.90;83.00;;;;;;5115751;28;20774;-92
2022/07/22 01:36:16;;;;;;;4.87;3.97;;;25.90;82.90;;;;;;5116883;28;21520;-93
2022/07/22 01:38:42;;;;;;;4.77;3.50;;;25.90;83.00;;;;;;5118543;28;20207;-93
2022/07/22 01:41:08;;;;;;;5.70;4.30;;;25.80;83.00;;;;;;5118327;28;20490;-92
2022/07/22 01:43:34;;;;;;;8.60;3.57;;;25.80;83.00;;;;;;5114330;28;20577;-92
2022/07/22 01:46:00;;;;;;;4.20;3.70;;;25.70;83.00;;;;;;5114134;28;20416;-93
2022/07/22 01:48:25;;;;;;;6.37;3.63;;;25.70;82.90;;;;;;5114042;28;20236;-92
2022/07/22 01:50:51;;;;;;;5.00;4.13;;;25.70;82.80;;;;;;5114198;28;20277;-91
2022/07/22 01:53:17;;;;;;;7.23;4.07;;;25.70;82.90;;;;;;5114561;28;20199;-92
2022/07/22 01:55:43;;;;;;;5.27;4.10;;;25.60;82.80;;;;;;5115219;28;20543;-92
2022/07/22 01:58:09;;;;;;;5.10;3.87;;;25.60;82.60;;;;;;5113879;28;20424;-92
2022/07/22 02:00:35;;;;;;;7.60;4.30;;;25.50;82.40;;;;;;5115028;28;20217;-92
2022/07/22 02:03:01;;;;;;;9.43;3.77;;;25.50;82.50;;;;;;5115271;28;20703;-93
2022/07/22 02:05:27;;;;;;;3.60;3.30;;;25.40;82.60;;;;;;5115134;28;20513;-93
2022/07/22 02:07:53;;;;;;;4.97;4.07;;;25.40;82.80;;;;;;5113686;28;20322;-93
2022/07/22 02:10:18;;;;;;;6.63;3.60;;;25.30;82.90;;;;;;5115391;28;20452;-93
2022/07/22 02:12:44;;;;;;;6.23;4.60;;;25.30;83.10;;;;;;5114003;28;20234;-92
2022/07/22 02:15:10;;;;;;;6.73;4.67;;;25.30;83.40;;;;;;5114125;28;20197;-92
2022/07/22 02:17:36;;;;;;;6.50;3.80;;;25.20;83.30;;;;;;5115552;28;20205;-92
2022/07/22 02:20:03;;;;;;;4.23;3.83;;;25.10;83.20;;;;;;5118750;28;20451;-92
2022/07/22 02:22:29;;;;;;;5.10;3.80;;;25.10;83.20;;;;;;5114034;28;20562;-93
2022/07/22 02:24:54;;;;;;;8.50;4.07;;;25.10;83.20;;;;;;5114986;28;20418;-93
2022/07/22 02:27:20;;;;;;;4.90;3.77;;;25.00;83.30;;;;;;5113897;28;20196;-93
2022/07/22 02:29:46;;;;;;;7.73;3.73;;;25.00;83.70;;;;;;5115396;28;20195;-92
2022/07/22 02:32:11;;;;;;;6.93;4.47;;;24.90;84.80;;;;;;5114994;28;20204;-93
2022/07/22 02:34:37;;;;;;;5.47;3.60;;;24.90;85.00;;;;;;5113917;28;20183;-92
2022/07/22 02:37:03;;;;;;;6.60;4.07;;;24.90;84.90;;;;;;5113681;28;20191;-92
2022/07/22 02:39:29;;;;;;;5.97;3.73;;;24.90;84.80;;;;;;5120433;28;20186;-93
2022/07/22 02:41:54;;;;;;;6.33;4.30;;;24.90;85.00;;;;;;5114679;28;21041;-93
2022/07/22 02:44:20;;;;;;;5.07;4.20;;;24.90;84.90;;;;;;5117148;28;20178;-93
2022/07/22 02:46:46;;;;;;;4.27;3.60;;;24.80;83.80;;;;;;5113816;28;20206;-92
2022/07/22 02:49:12;;;;;;;9.10;3.60;;;24.80;83.30;;;;;;5113859;28;20189;-92
2022/07/22 02:51:37;;;;;;;9.20;3.93;;;24.70;83.10;;;;;;5113616;28;20205;-92
2022/07/22 02:54:05;;;;;;;5.67;3.83;;;24.70;83.30;;;;;;5113621;28;20182;-93
2022/07/22 02:56:31;;;;;;;6.80;4.40;;;24.70;83.20;;;;;;5118366;28;20759;-93
2022/07/22 02:58:57;;;;;;;7.53;3.83;;;24.70;83.50;;;;;;5118714;28;20479;-93
2022/07/22 03:01:22;;;;;;;5.07;4.10;;;24.60;84.10;;;;;;5119385;28;20832;-92
2022/07/22 03:03:48;;;;;;;7.40;4.40;;;24.60;83.50;;;;;;5117236;28;20663;-92
2022/07/22 03:06:14;;;;;;;6.70;5.03;;;24.60;83.60;;;;;;5117212;28;20179;-93
2022/07/22 03:08:40;;;;;;;5.83;4.60;;;24.50;83.30;;;;;;5116963;28;20242;-93
2022/07/22 03:11:06;;;;;;;5.43;3.47;;;24.50;83.20;;;;;;5118240;28;20174;-93
2022/07/22 03:13:33;;;;;;;5.47;3.97;;;24.50;83.10;;;;;;5103288;28;20224;-93
2022/07/22 03:15:58;;;;;;;4.33;3.77;;;24.50;83.10;;;;;;5122651;28;20402;-93
2022/07/22 03:18:24;;;;;;;5.57;3.60;;;24.40;83.00;;;;;;5119931;28;20192;-93
2022/07/22 03:20:50;;;;;;;5.77;3.90;;;24.40;82.90;;;;;;5119982;28;20210;-91
2022/07/22 03:23:16;;;;;;;4.93;4.33;;;24.40;82.80;;;;;;5116626;28;20198;-94
2022/07/22 03:25:42;;;;;;;3.57;2.87;;;24.40;82.70;;;;;;5117148;28;20413;-92
2022/07/22 03:28:07;;;;;;;5.33;3.23;;;24.30;82.40;;;;;;5122415;28;20559;-93
2022/07/22 03:30:33;;;;;;;4.77;3.40;;;24.30;82.30;;;;;;5117739;28;20578;-93
2022/07/22 03:32:59;;;;;;;4.40;3.43;;;24.30;82.30;;;;;;5117751;27;20431;-92
2022/07/22 03:35:25;;;;;;;5.30;3.80;;;24.30;82.30;;;;;;5117689;28;20206;-93
2022/07/22 03:37:50;;;;;;;4.00;3.53;;;24.30;82.20;;;;;;5116445;28;20189;-93
2022/07/22 03:40:16;;;;;;;3.37;2.90;;;24.30;82.10;;;;;;5117460;28;20224;-93
2022/07/22 03:42:42;;;;;;;9.30;3.60;;;24.30;82.10;;;;;;5116476;28;20208;-93
2022/07/22 03:45:09;;;;;;;4.43;3.60;;;24.30;82.00;;;;;;5117963;28;20221;-93
2022/07/22 03:47:36;;;;;;;5.93;3.87;;;24.30;81.80;;;;;;5117411;28;20200;-93
2022/07/22 03:50:02;;;;;;;3.87;3.17;;;24.30;81.60;;;;;;5116475;28;20815;-92
2022/07/22 03:52:28;;;;;;;6.43;3.87;;;24.30;81.50;;;;;;5119233;28;20433;-92
2022/07/22 03:54:54;;;;;;;461.87;223.83;;;24.30;81.30;;;;;;5116825;28;20429;-94
2022/07/22 03:57:20;;;;;;;33.23;17.70;;;24.30;81.30;;;;;;5116248;28;20567;-92
2022/07/22 03:59:46;;;;;;;25.50;9.80;;;24.30;81.30;;;;;;5116214;28;20174;-92
2022/07/22 04:02:12;;;;;;;12.40;5.70;;;24.30;81.20;;;;;;5116173;28;20460;-93
2022/07/22 04:04:38;;;;;;;9.93;4.40;;;24.30;81.90;;;;;;5116338;28;20910;-92
2022/07/22 04:07:03;;;;;;;3.57;3.27;;;24.30;81.20;;;;;;5116714;28;20233;-93
2022/07/22 04:09:29;;;;;;;6.47;3.27;;;24.30;81.20;;;;;;5116128;28;20704;-93
2022/07/22 04:11:55;;;;;;;7.70;3.37;;;24.30;81.10;;;;;;5115990;28;20218;-92
2022/07/22 04:14:21;;;;;;;7.43;3.47;;;24.30;81.20;;;;;;5115873;28;20269;-93
2022/07/22 04:16:46;;;;;;;6.20;3.40;;;24.30;81.20;;;;;;5115692;28;20703;-93
2022/07/22 04:19:12;;;;;;;5.43;2.93;;;24.30;81.20;;;;;;5118028;28;20553;-93
2022/07/22 04:21:38;;;;;;;11.10;3.50;;;24.30;81.20;;;;;;5115746;28;20265;-92
2022/07/22 04:24:05;;;;;;;9.27;3.17;;;24.30;81.10;;;;;;5115776;28;20421;-92
2022/07/22 04:26:30;;;;;;;4.23;3.50;;;24.40;81.20;;;;;;5115529;28;20448;-93
2022/07/22 04:28:56;;;;;;;4.83;2.90;;;24.40;81.20;;;;;;5115629;28;20524;-93
2022/07/22 04:31:22;;;;;;;8.60;3.60;;;24.40;81.10;;;;;;5116739;28;20201;-93
2022/07/22 04:33:48;;;;;;;10.53;3.10;;;24.40;81.10;;;;;;5115530;28;20233;-93
2022/07/22 04:36:13;;;;;;;3.93;3.10;;;24.40;80.90;;;;;;5115442;28;20270;-92
2022/07/22 04:38:39;;;;;;;3.50;2.57;;;24.40;81.20;;;;;;5121086;28;20165;-92
2022/07/22 04:41:05;;;;;;;3.63;3.20;;;24.50;82.10;;;;;;5117110;28;20219;-93
2022/07/22 04:43:31;;;;;;;3.97;3.03;;;24.50;82.70;;;;;;5115749;28;20179;-93
2022/07/22 04:45:57;;;;;;;2.93;2.60;;;24.50;82.80;;;;;;5115696;28;20277;-92
2022/07/22 04:48:23;;;;;;;3.50;3.00;;;24.60;83.10;;;;;;5116273;28;20493;-93
2022/07/22 04:50:49;;;;;;;7.13;2.73;;;24.60;83.20;;;;;;5115189;28;20718;-92
2022/07/22 04:53:14;;;;;;;4.83;3.23;;;24.60;83.20;;;;;;5109552;28;20220;-93
2022/07/22 04:55:40;;;;;;;8.10;2.70;;;24.60;83.20;;;;;;5115820;28;20415;-91
2022/07/22 04:58:06;;;;;;;3.23;2.93;;;24.60;83.20;;;;;;5114906;28;20209;-93
2022/07/22 05:00:32;;;;;;;8.13;3.27;;;24.60;83.20;;;;;;5114935;28;20253;-91
2022/07/22 05:02:57;;;;;;;5.67;2.70;;;24.70;83.30;;;;;;5114799;28;20433;-93
2022/07/22 05:05:24;;;;;;;2.87;2.67;;;24.70;82.80;;;;;;5116482;28;20194;-92
2022/07/22 05:07:50;;;;;;;3.47;2.90;;;24.70;82.70;;;;;;5112635;28;20701;-92
2022/07/22 05:10:16;;;;;;;4.63;2.53;;;24.80;82.70;;;;;;5103369;28;20435;-93
2022/07/22 05:12:43;;;;;;;3.03;2.83;;;24.80;82.50;;;;;;5108524;28;20229;-94
2022/07/22 05:15:09;;;;;;;3.03;2.17;;;24.90;82.30;;;;;;5115887;28;20426;-92
2022/07/22 05:17:35;;;;;;;4.10;3.03;;;24.90;82.10;;;;;;5113673;28;20445;-93
2022/07/22 05:20:04;;;;;;;5.50;2.90;;;24.90;81.80;;;;;;5114385;28;20423;-92
2022/07/22 05:22:30;;;;;;;3.40;2.80;;;25.00;82.10;;;;;;5114434;28;20438;-93
2022/07/22 05:24:56;;;;;;;3.97;2.97;;;25.00;82.30;;;;;;5114905;28;20428;-93
2022/07/22 05:27:22;;;;;;;3.93;2.30;;;25.10;82.50;;;;;;5114288;28;20255;-91
2022/07/22 05:29:47;;;;;;;2.67;2.43;;;25.10;82.90;;;;;;5094706;28;20216;-92
2022/07/22 05:32:14;;;;;;;4.70;2.70;;;25.20;82.30;;;;;;5107241;28;20206;-94
2022/07/22 05:34:40;;;;;;;6.97;2.57;;;25.20;82.40;;;;;;5114733;28;20196;-93
2022/07/22 05:37:05;;;;;;;5.97;2.60;;;25.20;80.10;;;;;;5115760;28;20447;-92
2022/07/22 05:39:31;;;;;;;4.67;2.70;;;25.30;78.40;;;;;;5115824;28;20183;-92
2022/07/22 05:41:57;;;;;;;3.60;3.00;;;25.30;77.50;;;;;;5121699;28;20227;-91
2022/07/22 05:44:22;;;;;;;7.30;2.53;;;25.40;77.20;;;;;;5122488;28;20202;-92
2022/07/22 05:46:48;;;;;;;4.57;2.43;;;25.40;77.10;;;;;;5107411;28;20730;-93
2022/07/22 05:49:14;;;;;;;5.50;2.40;;;25.40;76.80;;;;;;5115120;28;20267;-92
2022/07/22 05:51:39;;;;;;;2.30;2.10;;;25.40;76.50;;;;;;5113013;28;20198;-92
2022/07/22 05:54:05;;;;;;;9.90;2.33;;;25.50;76.40;;;;;;5103696;28;20183;-93
2022/07/22 05:56:31;;;;;;;2.33;1.80;;;25.60;76.20;;;;;;5102792;28;20208;-94
2022/07/22 05:58:57;;;;;;;2.70;2.50;;;25.60;76.10;;;;;;5107521;28;20220;-93
2022/07/22 06:01:23;;;;;;;2.63;2.20;;;25.70;76.00;;;;;;5109524;28;20313;-93
2022/07/22 06:03:48;;;;;;;2.03;1.83;;;25.80;75.90;;;;;;5110578;28;20702;-92
2022/07/22 06:06:14;;;;;;;3.67;2.33;;;25.80;75.80;;;;;;5111616;28;20466;-93
2022/07/22 06:08:40;;;;;;;3.93;2.20;;;25.90;75.80;;;;;;5103285;28;20235;-93
2022/07/22 06:11:06;;;;;;;4.87;2.53;;;26.00;75.20;;;;;;5106425;28;20767;-93
2022/07/22 06:13:33;;;;;;;3.67;2.30;;;26.00;77.10;;;;;;5103980;28;20561;-94
2022/07/22 06:15:59;;;;;;;4.80;2.30;;;26.10;76.40;;;;;;5091007;28;20409;-93
2022/07/22 06:18:26;;;;;;;2.60;2.17;;;26.10;75.90;;;;;;5105603;28;20469;-93
2022/07/22 06:20:52;;;;;;;3.50;2.03;;;26.20;75.60;;;;;;5107604;28;20494;-93
2022/07/22 06:23:18;;;;;;;3.13;2.00;;;26.20;76.10;;;;;;5098731;28;20449;-93
2022/07/22 06:25:43;;;;;;;2.60;1.90;;;26.30;76.00;;;;;;5104592;28;20787;-92
2022/07/22 06:28:10;;;;;;;2.03;1.80;;;26.40;75.60;;;;;;5102523;28;20441;-93
2022/07/22 06:30:36;;;;;;;2.13;1.90;;;26.40;74.50;;;;;;5090427;28;20176;-93
2022/07/22 06:33:02;;;;;;;2.90;2.37;;;26.50;74.60;;;;;;5093961;28;20443;-93
2022/07/22 06:35:28;;;;;;;1.90;1.60;;;26.60;74.50;;;;;;5099917;28;20877;-94
2022/07/22 06:37:53;;;;;;;2.70;1.70;;;26.60;75.00;;;;;;5097618;28;20447;-93
2022/07/22 06:40:19;;;;;;;3.43;1.80;;;26.70;74.90;;;;;;5107116;28;20223;-93
2022/07/22 06:42:45;;;;;;;3.30;2.20;;;26.80;73.40;;;;;;5114941;28;20554;-92
2022/07/22 06:45:11;;;;;;;7.03;2.10;;;26.80;73.20;;;;;;5109730;28;20998;-93
2022/07/22 06:47:36;;;;;;;3.37;2.40;;;27.00;73.90;;;;;;5117232;28;20196;-92
2022/07/22 06:50:07;;;;;;;5.93;2.67;;;27.00;74.00;;;;;;5118402;28;20179;-94
2022/07/22 06:52:33;;;;;;;8.43;2.10;;;27.10;73.40;;;;;;5111572;28;20254;-93
2022/07/22 06:54:59;;;;;;;2.63;2.00;;;27.20;73.00;;;;;;5110473;28;20432;-93
2022/07/22 06:57:24;;;;;;;2.90;1.93;;;27.30;73.30;;;;;;5111694;28;20198;-93
2022/07/22 06:59:50;;;;;;;2.70;2.00;;;27.40;72.80;;;;;;5106401;28;20245;-93
2022/07/22 07:02:16;;;;;;;2.30;2.00;;;27.50;72.40;;;;;;5104813;28;20200;-93
2022/07/22 07:04:42;;;;;;;1.90;1.80;;;27.50;72.80;;;;;;5103273;28;20400;-94
2022/07/22 07:07:08;;;;;;;3.40;2.10;;;27.60;72.90;;;;;;5102248;28;20261;-94
2022/07/22 07:09:34;;;;;;;2.63;2.07;;;27.70;72.70;;;;;;5112838;28;20176;-93
2022/07/22 07:12:00;;;;;;;2.17;1.97;;;27.80;73.10;;;;;;5109185;28;20451;-92
2022/07/22 07:14:25;;;;;;;3.60;2.03;;;27.90;74.10;;;;;;5105195;28;20445;-92
2022/07/22 07:16:51;;;;;;;2.20;1.87;;;28.00;72.00;;;;;;5105967;28;20216;-93
2022/07/22 07:19:19;;;;;;;2.10;1.90;;;28.10;73.60;;;;;;5102579;28;20542;-93
2022/07/22 07:21:45;;;;;;;2.33;1.80;;;28.10;72.20;;;;;;5105012;28;20211;-93
2022/07/22 07:24:11;;;;;;;2.40;2.10;;;28.20;73.30;;;;;;5105853;28;20488;-93
2022/07/22 07:26:37;;;;;;;1.83;1.50;;;28.30;73.80;;;;;;5109171;28;20544;-92
2022/07/22 07:29:03;;;;;;;26.13;16.10;;;28.40;70.80;;;;;;5099293;28;20186;-92
2022/07/22 07:31:28;;;;;;;122.40;64.73;;;28.50;73.70;;;;;;5107146;28;20448;-94
2022/07/22 07:33:54;;;;;;;14.57;9.17;;;28.60;73.60;;;;;;5107250;28;20414;-93
2022/07/22 07:36:20;;;;;;;18.60;10.07;;;28.70;72.80;;;;;;5107042;28;20190;-93
2022/07/22 07:38:46;;;;;;;3.87;3.43;;;28.70;71.60;;;;;;5115209;28;20644;-93
2022/07/22 07:41:12;;;;;;;2.30;2.10;;;28.80;72.10;;;;;;5096838;28;20520;-93
2022/07/22 07:43:38;;;;;;;3.07;2.27;;;28.90;70.80;;;;;;5105293;28;20648;-93
2022/07/22 07:46:04;;;;;;;1.90;1.73;;;29.00;70.30;;;;;;5102363;28;20564;-93
2022/07/22 07:48:29;;;;;;;3.67;1.90;;;29.00;71.00;;;;;;5113472;28;20182;-92
2022/07/22 07:50:55;;;;;;;3.07;1.83;;;29.10;70.40;;;;;;5108413;28;20231;-92
2022/07/22 07:53:21;;;;;;;2.10;2.00;;;29.20;70.50;;;;;;5108354;28;20195;-93
2022/07/22 07:55:47;;;;;;;3.37;1.73;;;29.30;71.20;;;;;;5105868;28;20237;-92
2022/07/22 07:58:13;;;;;;;3.10;1.80;;;29.40;69.20;;;;;;5106286;28;20202;-93
2022/07/22 08:00:41;;;;;;;3.10;2.17;;;29.50;70.40;;;;;;5100894;28;20540;-92
2022/07/22 08:03:07;;;;;;;2.77;1.73;;;29.50;69.80;;;;;;5102819;28;20211;-93
2022/07/22 08:05:33;;;;;;;2.43;2.00;;;29.60;71.10;;;;;;5108715;28;20432;-91
2022/07/22 08:07:58;;;;;;;3.03;2.17;;;29.70;70.50;;;;;;5106721;28;20341;-91
2022/07/22 08:10:24;;;;;;;2.70;1.80;;;29.70;71.30;;;;;;5107579;28;20448;-94
2022/07/22 08:12:50;;;;;;;10.40;2.60;;;29.80;69.40;;;;;;5093763;28;20289;-94
2022/07/22 08:15:16;;;;;;;3.47;2.27;;;29.90;69.40;;;;;;5109189;28;20452;-92
2022/07/22 08:17:42;;;;;;;3.63;2.10;;;30.00;71.20;;;;;;5100871;28;20445;-95
2022/07/22 08:20:08;;;;;;;5.00;1.70;;;30.00;72.20;;;;;;5108708;28;20239;-93
2022/07/22 08:22:34;;;;;;;2.37;2.10;;;30.00;72.10;;;;;;5110223;28;20223;-96
2022/07/22 08:25:00;;;;;;;2.90;2.60;;;30.10;71.00;;;;;;5102452;28;20436;-95
2022/07/22 08:27:27;;;;;;;5.83;2.47;;;30.20;71.70;;;;;;5116089;28;20444;-93
2022/07/22 08:29:52;;;;;;;1.63;1.53;;;30.30;70.90;;;;;;5106505;28;20502;-92
2022/07/22 08:32:18;;;;;;;1.90;1.63;;;30.30;70.50;;;;;;5106180;28;20454;-91
2022/07/22 08:34:44;;;;;;;2.07;1.77;;;30.40;71.30;;;;;;5104955;28;20584;-94
2022/07/22 08:37:10;;;;;;;3.20;1.50;;;30.40;71.60;;;;;;5102102;28;20443;-94
2022/07/22 08:39:36;;;;;;;1.47;1.30;;;30.50;66.50;;;;;;5099879;28;20205;-93
2022/07/22 08:42:03;;;;;;;6.77;1.70;;;30.60;68.90;;;;;;5113438;28;20488;-93
2022/07/22 08:44:33;;;;;;;2.87;1.87;;;30.70;65.90;;;;;;5100349;28;20927;-90
2022/07/22 08:46:59;;;;;;;2.17;1.80;;;30.80;66.40;;;;;;5108828;28;20461;-92
2022/07/22 08:49:26;;;;;;;5.27;1.70;;;30.90;68.50;;;;;;5113168;28;20449;-90
2022/07/22 08:51:52;;;;;;;2.47;2.07;;;30.90;69.80;;;;;;5113145;28;20469;-89
2022/07/22 08:54:18;;;;;;;2.77;1.80;;;31.00;70.10;;;;;;5097884;28;20435;-91
2022/07/22 08:56:51;;;;;;;2.20;2.00;;;31.00;71.10;;;;;;5103339;28;20662;-91
2022/07/22 08:59:17;;;;;;;1.93;1.50;;;31.10;66.90;;;;;;5099829;28;20211;-93
2022/07/22 09:02:07;;;;;;;3.10;2.07;;;31.20;69.90;;;;;;5103675;28;21013;-90
2022/07/22 09:04:56;;;;;;;1.63;1.43;;;31.20;70.10;;;;;;5100639;28;20189;-90
2022/07/22 09:07:31;;;;;;;3.37;1.50;;;31.30;68.40;;;;;;5106504;28;20478;-92
2022/07/22 09:10:00;;;;;;;4.87;1.70;;;31.30;69.80;;;;;;5106693;28;20492;-89
2022/07/22 09:12:31;;;;;;;1.80;1.50;;;31.50;69.00;;;;;;5102723;28;20458;-90
2022/07/22 09:14:59;;;;;;;2.90;1.80;;;31.50;68.90;;;;;;5113275;28;20428;-90
2022/07/22 09:17:36;;;;;;;1.90;1.40;;;31.70;67.50;;;;;;5110618;28;20435;-91
2022/07/22 09:20:15;;;;;;;2.53;1.53;;;31.90;66.40;;;;;;5106503;28;20459;-93
2022/07/22 09:22:46;;;;;;;1.30;1.20;;;32.00;61.50;;;;;;5105260;28;20444;-91
2022/07/22 09:25:21;;;;;;;3.30;1.57;;;32.10;64.30;;;;;;5108777;28;20532;-92
2022/07/22 09:27:48;;;;;;;1.53;1.43;;;32.10;67.20;;;;;;5104150;28;20451;-91
2022/07/22 09:30:23;;;;;;;4.20;1.83;;;32.10;67.90;;;;;;5111332;28;20435;-91
2022/07/22 09:32:49;;;;;;;2.30;1.63;;;32.20;67.90;;;;;;5113789;28;20507;-92
2022/07/22 09:35:30;;;;;;;2.13;1.93;;;32.30;65.20;;;;;;5108916;28;20432;-93
2022/07/22 09:38:00;;;;;;;2.47;1.80;;;32.40;61.80;;;;;;5104067;28;20506;-91
2022/07/22 09:40:29;;;;;;;2.33;2.13;;;32.60;64.20;;;;;;5095466;28;20567;-92
2022/07/22 09:43:02;;;;;;;3.37;1.67;;;32.70;61.00;;;;;;5095772;28;21031;-92
2022/07/22 09:45:30;;;;;;;2.00;1.40;;;32.70;63.10;;;;;;5100172;28;20432;-94
2022/07/22 09:47:57;;;;;;;2.90;1.50;;;32.90;59.40;;;;;;5094561;28;20493;-94
2022/07/22 09:50:24;;;;;;;1.67;1.57;;;32.90;59.10;;;;;;5101841;28;20574;-94
2022/07/22 09:52:51;;;;;;;3.20;2.40;;;33.00;61.60;;;;;;5105715;28;20463;-93
2022/07/22 09:55:19;;;;;;;1.87;1.60;;;33.00;65.30;;;;;;5114274;28;20466;-94
2022/07/22 09:57:46;;;;;;;1.83;1.63;;;33.00;65.70;;;;;;5101833;28;20471;-92
2022/07/22 10:00:13;;;;;;;1.97;1.77;;;33.00;66.50;;;;;;5103954;28;20447;-92
2022/07/22 10:03:07;;;;;;;2.73;1.77;;;32.90;66.30;;;;;;5096883;28;20570;-92
2022/07/22 10:05:36;;;;;;;1.80;1.60;;;33.00;61.50;;;;;;5096931;28;20450;-92
2022/07/22 10:08:03;;;;;;;1.57;1.40;;;33.10;64.20;;;;;;5105940;28;20486;-92
2022/07/22 10:10:30;;;;;;;1.93;1.70;;;33.10;65.70;;;;;;5113171;28;20476;-92
2022/07/22 10:12:58;;;;;;;2.60;1.80;;;33.10;66.00;;;;;;5127338;27;20448;-92
2022/07/22 10:15:25;;;;;;;1.97;1.80;;;33.10;66.90;;;;;;5105238;28;20436;-93
2022/07/22 10:18:05;;;;;;;2.20;1.60;;;33.10;63.60;;;;;;5106053;28;20579;-94
2022/07/22 10:20:32;;;;;;;2.03;1.30;;;33.20;61.10;;;;;;5108519;28;20552;-93
2022/07/22 10:23:02;;;;;;;3.03;1.70;;;33.30;60.50;;;;;;5106573;27;20801;-92
2022/07/22 10:25:31;;;;;;;1.77;1.40;;;33.40;59.40;;;;;;5103030;28;20466;-94
2022/07/22 10:27:59;;;;;;;4.93;1.87;;;33.40;57.60;;;;;;5104374;28;20452;-94
2022/07/22 10:30:38;;;;;;;2.00;1.83;;;33.60;55.30;;;;;;5108712;28;20443;-94
2022/07/22 10:33:21;;;;;;;2.03;1.83;;;33.70;54.80;;;;;;5105016;28;20479;-94
2022/07/22 10:35:54;;;;;;;2.20;2.00;;;33.90;53.70;;;;;;5101847;28;20785;-94
2022/07/22 10:38:21;;;;;;;2.00;1.80;;;33.90;56.20;;;;;;5113658;28;20841;-93
2022/07/22 10:40:59;;;;;;;3.20;1.83;;;34.00;58.30;;;;;;5105727;27;20505;-95
2022/07/22 10:43:26;;;;;;;3.20;1.43;;;33.90;61.70;;;;;;5109243;28;20562;-93
2022/07/22 10:45:52;;;;;;;3.47;1.40;;;33.90;63.00;;;;;;5107582;28;20525;-93
2022/07/22 10:48:24;;;;;;;1.60;1.50;;;33.80;63.30;;;;;;5104646;28;20953;-94
2022/07/22 10:50:54;;;;;;;2.20;1.37;;;33.80;64.30;;;;;;5105391;28;20176;-93
2022/07/22 10:53:23;;;;;;;2.87;1.63;;;33.80;64.10;;;;;;5089430;28;20484;-96
2022/07/22 10:56:13;;;;;;;2.27;2.07;;;33.80;63.10;;;;;;5107616;28;20496;-93
2022/07/22 10:58:42;;;;;;;2.70;1.80;;;33.80;64.60;;;;;;5103984;28;20428;-95
2022/07/22 11:01:11;;;;;;;2.63;1.67;;;33.80;64.30;;;;;;5111034;27;20550;-93
2022/07/22 11:03:39;;;;;;;3.53;1.90;;;33.80;64.00;;;;;;5115371;28;20538;-90
2022/07/22 11:06:14;;;;;;;2.50;1.83;;;33.90;64.50;;;;;;5106670;28;20424;-94
2022/07/22 11:08:41;;;;;;;2.03;1.93;;;33.90;58.50;;;;;;5105253;28;20562;-89
2022/07/22 11:11:07;;;;;;;2.67;1.87;;;34.00;58.40;;;;;;5101474;28;20490;-96
2022/07/22 11:13:35;;;;;;;2.10;1.93;;;34.10;55.70;;;;;;5108083;28;20825;-93
2022/07/22 11:16:22;;;;;;;2.73;2.03;;;34.20;56.20;;;;;;5114337;27;20514;-93
2022/07/22 11:18:56;;;;;;;3.00;1.90;;;34.20;61.70;;;;;;5107737;28;20432;-92
2022/07/22 11:21:31;;;;;;;2.23;2.00;;;34.10;62.60;;;;;;5108702;28;20811;-93
2022/07/22 11:24:01;;;;;;;5.10;2.60;;;34.10;63.00;;;;;;5107372;28;20415;-93
2022/07/22 11:26:43;;;;;;;2.00;1.83;;;34.10;63.10;;;;;;5108711;28;20491;-92
2022/07/22 11:29:10;;;;;;;2.37;2.13;;;34.10;64.40;;;;;;5097954;28;20429;-93
2022/07/22 11:31:37;;;;;;;4.53;2.30;;;34.00;57.50;;;;;;5128034;27;20973;-94
2022/07/22 11:34:11;;;;;;;2.47;2.03;;;34.00;61.00;;;;;;5102934;28;20428;-94
2022/07/22 11:36:39;;;;;;;4.53;2.00;;;34.00;63.20;;;;;;5115415;28;21103;-91
2022/07/22 11:39:06;;;;;;;2.20;1.97;;;34.10;60.40;;;;;;5104709;28;20875;-92
2022/07/22 11:41:32;;;;;;;2.30;2.03;;;34.10;58.60;;;;;;5107002;28;20487;-93
2022/07/22 11:44:01;;;;;;;2.50;2.17;;;34.20;55.20;;;;;;5109900;28;20479;-93
2022/07/22 11:46:28;;;;;;;2.03;1.80;;;34.30;53.60;;;;;;5101679;28;20541;-92
2022/07/22 11:48:56;;;;;;;5.27;2.80;;;34.40;55.10;;;;;;5107306;28;20429;-95
2022/07/22 11:51:29;;;;;;;2.43;2.23;;;34.50;54.60;;;;;;5117180;27;20460;-91
2022/07/22 11:53:55;;;;;;;3.07;1.77;;;34.50;55.00;;;;;;5100290;28;20429;-90
2022/07/22 11:56:21;;;;;;;2.47;1.97;;;34.60;55.30;;;;;;5092874;28;20519;-94
2022/07/22 11:58:49;;;;;;;4.60;2.63;;;34.70;55.50;;;;;;5100776;28;20491;-94
2022/07/22 12:01:17;;;;;;;2.77;2.57;;;34.70;55.00;;;;;;5099069;28;20216;-96
2022/07/22 12:03:50;;;;;;;2.47;2.00;;;34.80;53.70;;;;;;5103927;28;20474;-93
2022/07/22 12:06:17;;;;;;;2.33;1.80;;;34.90;55.50;;;;;;5100273;28;20517;-95
2022/07/22 12:08:48;;;;;;;5.93;2.77;;;34.80;58.50;;;;;;5098503;28;20547;-93
2022/07/22 12:11:16;;;;;;;2.77;1.97;;;34.90;56.00;;;;;;5101859;28;20429;-94
2022/07/22 12:13:48;;;;;;;2.50;2.30;;;34.90;59.10;;;;;;5096712;28;20429;-90
2022/07/22 12:16:26;;;;;;;2.90;2.47;;;34.90;57.90;;;;;;5099988;28;20433;-92
2022/07/22 12:19:07;;;;;;;2.77;2.40;;;34.80;61.30;;;;;;5101437;28;20431;-93
2022/07/22 12:21:51;;;;;;;4.20;2.17;;;34.90;56.10;;;;;;5102397;28;21002;-92
2022/07/22 12:24:24;;;;;;;3.73;2.20;;;34.90;57.50;;;;;;5104559;28;20423;-91
2022/07/22 12:26:50;;;;;;;2.90;2.10;;;35.00;53.80;;;;;;5092892;28;20449;-92
2022/07/22 12:29:31;;;;;;;3.03;2.37;;;35.00;55.90;;;;;;5110907;28;20420;-91
2022/07/22 12:31:59;;;;;;;3.10;1.83;;;35.00;58.70;;;;;;5095953;28;20882;-90
2022/07/22 12:34:36;;;;;;;2.83;2.07;;;34.90;61.40;;;;;;5102898;28;20439;-93
2022/07/22 12:37:22;;;;;;;2.67;2.47;;;34.90;58.00;;;;;;5110417;28;20506;-92
2022/07/22 12:40:02;;;;;;;3.33;2.20;;;35.00;60.00;;;;;;5097979;28;20443;-92
2022/07/22 12:42:36;;;;;;;5.80;2.53;;;34.90;61.60;;;;;;5101263;28;21053;-92
2022/07/22 12:45:11;;;;;;;3.53;2.30;;;35.00;60.00;;;;;;5114548;28;20438;-92
2022/07/22 12:47:54;;;;;;;2.83;2.17;;;35.00;56.00;;;;;;5096231;28;20558;-92